CYBG

CFB Bagotville Airport

Bagotville, Quebec, Canada
TAF CYBG 151130Z 1512/1612 28012KT P6SM FEW020 SCT030 BKN070 TEMPO 1512/1514 5SM -SHRA BR BKN020 OVC030 PROB30 1512/1513 VRB15G25KT 5SM TSRA BR OVC020CB FM151400 29015KT P6SM SCT030 TEMPO 1514/1606 BKN030 BECMG 1601/1603 28008KT FM160600 VRB03KT P6SM BKN040 RMK NXT FCST BY 151500Z
Issued Valid From Valid To
Aug-15 @ 11:30 UTC
(an hour ago)
Aug-15 @ 12:00 UTC
(41 minutes ago)
Aug-16 @ 12:00 UTC
(in 23 hours)
Aug-15 @ 12:00 to Aug-15 @ 14:00
TAF CYBG 151130Z 1512/1612 28012KT P6SM FEW020 SCT030 BKN070
Wind Visibility Clouds
280° at 12 knots Greater than 6 miles
  • Few at 2,000' AGL
  • Scattered at 3,000' AGL
  • Broken at 7,000' AGL
Probable  (Probability 30%) Aug-15 @ 12:00 to Aug-15 @ 13:00
PROB30 1512/1513 VRB15G25KT 5SM TSRA BR OVC020CB
Wind Visibility Clouds Conditions
Variable at 15 knots
 Gusting to 25 knots
5 miles
  • Overcast at 2,000' AGL
  • Thunderstorm
  • Rain
  • Mist
Temporary Aug-15 @ 12:00 to Aug-15 @ 14:00
TEMPO 1512/1514 5SM -SHRA BR BKN020 OVC030
Visibility Clouds Conditions
5 miles
  • Broken at 2,000' AGL
  • Overcast at 3,000' AGL
  • Light Rain
  • Mist
From Aug-15 @ 14:00 to Aug-16 @ 01:00
FM151400 29015KT P6SM SCT030
Wind Visibility Clouds
290° at 15 knots Greater than 6 miles
  • Scattered at 3,000' AGL
Temporary Aug-15 @ 14:00 to Aug-16 @ 06:00
TEMPO 1514/1606 BKN030
Clouds
  • Broken at 3,000' AGL
Becoming Aug-16 @ 01:00 to Aug-16 @ 06:00
BECMG 1601/1603 28008KT
Wind Visibility Clouds
280° at 8 knots Greater than 6 miles
  • Scattered at 3,000' AGL
From Aug-16 @ 06:00 to Aug-16 @ 12:00
FM160600 VRB03KT P6SM BKN040 RMK NXT FCST BY 151500Z
Wind Visibility Clouds
Variable at 3 knots Greater than 6 miles
  • Broken at 4,000' AGL
TAF CYBG 151130Z 1512/1612 28012KT P6SM FEW020 SCT030 BKN070 TEMPO 1512/1514 5SM -SHRA BR BKN020 OVC030 PROB30 1512/1513 VRB15G25KT 5SM TSRA BR OVC020CB FM151400 29015KT P6SM SCT030 TEMPO 1514/1606 BKN030 BECMG 1601/1603 28008KT FM160600 VRB03KT P6SM BKN040 RMK NXT FCST BY 151500Z
Issued Aug-15 @ 11:30 UTC
(an hour ago)
Valid From Aug-15 @ 12:00 UTC
(41 minutes ago)
Valid To Aug-16 @ 12:00 UTC
(in 23 hours)
Aug-15 @ 12:00 - Aug-15 @ 14:00
Wind Visibility
280° at 12 knots Greater than 6 miles
Clouds
  • Few at 2,000' AGL
  • Scattered at 3,000' AGL
  • Broken at 7,000' AGL
Probability 30% Probable Aug-15 @ 12:00 - Aug-15 @ 13:00
Wind Visibility
Variable at 15 knots
 Gusting to 25 knots
5 miles
Clouds
  • Overcast at 2,000' AGL
Conditions
  • Thunderstorm
  • Rain
  • Mist
Temporary Aug-15 @ 12:00 - Aug-15 @ 14:00
Clouds
  • Broken at 2,000' AGL
  • Overcast at 3,000' AGL
Conditions
  • Light Rain
  • Mist
From Aug-15 @ 14:00 - Aug-16 @ 01:00
Wind Visibility
290° at 15 knots Greater than 6 miles
Clouds
  • Scattered at 3,000' AGL
Temporary Aug-15 @ 14:00 - Aug-16 @ 06:00
Clouds
  • Broken at 3,000' AGL
Becoming Aug-16 @ 01:00 - Aug-16 @ 06:00
Wind Visibility
280° at 8 knots Greater than 6 miles
Clouds
  • Scattered at 3,000' AGL
From Aug-16 @ 06:00 - Aug-16 @ 12:00
Wind Visibility
Variable at 3 knots Greater than 6 miles
Clouds
  • Broken at 4,000' AGL